MST,Max TemperatureF,Mean TemperatureF,Min TemperatureF,Max Dew PointF,MeanDew PointF,Min DewpointF,Max Humidity, Mean Humidity, Min Humidity, Max Sea Level PressureIn, Mean Sea Level PressureIn, Min Sea Level PressureIn, Max VisibilityMiles, Mean VisibilityMiles, Min VisibilityMiles, Max Wind SpeedMPH, Mean Wind SpeedMPH, Max Gust SpeedMPH,PrecipitationIn, CloudCover, Events, WindDirDegrees
2012-11-1,63,50,37,35,31,23,70,46,21,30.04,29.93,29.81,10,10,10,22,10,25,0.00,3,,223
2012-11-2,57,43,28,34,30,25,92,61,30,30.19,30.15,30.06,10,10,10,10,4,15,0.00,0,,229
2012-11-3,60,42,24,31,28,24,92,60,28,30.28,30.23,30.16,10,10,10,12,4,14,0.00,0,,233
2012-11-4,62,48,34,35,32,27,82,59,35,30.43,30.35,30.24,10,10,10,16,7,18,0.00,2,,228
2012-11-5,62,47,31,41,36,29,89,66,43,30.49,30.37,30.29,10,10,10,21,7,25,0.00,0,,230
2012-11-6,67,50,33,40,35,31,92,63,34,30.36,30.24,30.09,10,10,10,12,2,13,0.00,0,,27
2012-11-7,69,52,35,37,31,27,89,55,21,30.09,29.95,29.81,10,10,10,22,9,26,0.00,1,,289
2012-11-8,58,47,35,41,34,30,92,65,38,29.78,29.66,29.56,10,10,6,21,6,28,0.07,5,Rain,267
2012-11-9,37,33,29,34,31,24,100,89,78,29.75,29.70,29.64,10,6,1,18,9,23,0.34,7,Rain-Snow,211
2012-11-10,31,27,23,25,22,20,96,86,75,30.09,29.89,29.70,10,5,1,24,12,28,0.06,8,Snow,250
2012-11-11,30,25,19,21,19,15,96,80,63,30.52,30.22,29.99,10,6,0,24,12,29,0.10,7,Fog-Snow,228
2012-11-12,36,28,20,28,20,13,92,74,56,30.53,30.49,30.44,10,10,4,17,8,25,T,5,Snow,174
2012-11-13,41,35,29,31,28,27,100,80,60,30.45,30.38,30.30,10,10,7,8,4,9,T,7,,33
2012-11-14,40,35,29,36,32,29,100,88,76,30.37,30.30,30.26,10,8,5,12,3,14,T,8,Rain-Snow,320
2012-11-15,46,35,24,34,30,23,100,81,62,30.41,30.33,30.22,10,8,2,15,5,33,0.00,4,,50
2012-11-16,50,37,24,34,29,23,100,77,53,30.20,30.12,30.06,10,9,0,15,3,20,0.00,4,Fog,336
2012-11-17,57,45,33,39,35,31,92,70,47,30.08,29.96,29.81,10,10,9,28,12,36,T,6,Rain,199
2012-11-18,50,42,34,41,37,33,93,77,61,30.15,30.00,29.83,10,8,2,25,11,32,0.44,6,Rain,230
2012-11-19,53,44,35,40,37,34,100,78,56,30.23,30.18,30.13,10,10,9,24,10,31,0.08,6,Rain,180
2012-11-20,54,52,49,36,33,29,56,47,38,30.14,30.04,29.89,10,10,10,31,18,38,T,6,Rain,183
2012-11-21,55,45,34,41,32,27,79,59,38,30.18,29.94,29.81,10,10,2,32,19,41,0.07,5,Rain,211
2012-11-22,41,33,24,26,25,22,85,70,54,30.60,30.46,30.22,10,10,10,21,9,25,0.00,1,,225
2012-11-23,46,33,19,28,24,17,92,67,42,30.62,30.50,30.34,10,10,10,8,3,10,0.00,0,,45
2012-11-24,57,41,24,33,26,21,92,59,26,30.31,30.18,30.00,10,10,10,23,9,28,0.00,4,,221
2012-11-25,42,37,32,37,33,27,92,76,60,30.25,30.07,29.96,10,9,3,23,13,29,0.12,8,Rain,228
2012-11-26,40,32,23,29,26,21,92,78,64,30.37,30.32,30.23,10,10,9,12,4,15,0.00,3,,229
2012-11-27,47,33,19,32,25,17,100,77,53,30.40,30.31,30.21,10,9,2,8,3,9,0.00,0,,47
2012-11-28,51,37,22,32,28,23,92,69,46,30.27,30.14,29.97,10,10,2,16,4,25,T,2,,36
2012-11-29,55,43,31,35,30,27,82,60,38,30.15,30.03,29.89,10,10,10,24,11,31,T,3,,186
2012-11-30,52,46,39,41,37,30,96,70,44,29.94,29.86,29.77,10,10,4,30,16,38,0.42,7,Rain,191